Time;durP1;ratioP1;P1;durP2;ratioP2;P2;SDS_P1;SDS_P2;PMS_P1;PMS_P2;Temp;Humidity;BMP_temperature;BMP_pressure;BME280_temperature;BME280_humidity;BME280_pressure;Samples;Min_cycle;Max_cycle;Signal;HPM_P1;HPM_P2
2022/03/18 00:00:51;;;;;;;3.03;2.33;;;20.20;59.00;;;;;;4951961;28;88023;-74
2022/03/18 00:03:17;;;;;;;5.70;3.20;;;20.20;58.80;;;;;;4965005;28;88887;-73
2022/03/18 00:05:43;;;;;;;4.05;2.50;;;20.20;58.80;;;;;;4950957;28;87382;-73
2022/03/18 00:08:10;;;;;;;3.60;2.70;;;20.20;58.80;;;;;;4951861;28;88536;-73
2022/03/18 00:10:35;;;;;;;3.95;2.30;;;20.20;58.80;;;;;;4951746;28;88209;-73
2022/03/18 00:13:01;;;;;;;4.50;2.50;;;20.20;58.90;;;;;;4966775;28;87651;-73
2022/03/18 00:15:27;;;;;;;3.83;2.75;;;20.20;58.80;;;;;;4950304;28;87895;-73
2022/03/18 00:17:54;;;;;;;4.32;2.85;;;20.20;59.20;;;;;;4952300;28;87571;-73
2022/03/18 00:20:21;;;;;;;3.20;2.38;;;20.20;58.70;;;;;;4952411;28;88073;-73
2022/03/18 00:22:48;;;;;;;2.80;2.22;;;20.20;58.80;;;;;;4952228;28;87281;-73
2022/03/18 00:25:15;;;;;;;3.63;2.60;;;20.20;58.60;;;;;;4951782;28;87883;-73
2022/03/18 00:27:42;;;;;;;5.55;2.95;;;20.10;58.50;;;;;;4948912;28;88319;-73
2022/03/18 00:30:13;;;;;;;2.83;2.53;;;20.10;58.60;;;;;;4951604;28;89231;-73
2022/03/18 00:32:39;;;;;;;4.57;2.60;;;20.10;58.40;;;;;;4951227;28;87035;-74
2022/03/18 00:35:08;;;;;;;3.70;2.45;;;20.10;58.60;;;;;;4950376;28;91105;-74
2022/03/18 00:37:34;;;;;;;3.72;2.42;;;20.20;58.50;;;;;;4951385;28;88059;-74
2022/03/18 00:40:00;;;;;;;2.83;2.40;;;20.10;58.30;;;;;;4951403;28;88233;-74
2022/03/18 00:42:26;;;;;;;4.55;2.67;;;20.10;58.50;;;;;;4951666;28;86875;-74
2022/03/18 00:44:52;;;;;;;3.55;2.22;;;20.10;58.30;;;;;;4952235;28;86422;-73
2022/03/18 00:52:46;;;;;;;3.40;2.53;;;20.10;58.20;;;;;;4950914;28;88263;-74
2022/03/18 00:55:11;;;;;;;3.88;2.60;;;20.10;58.10;;;;;;4951740;28;88204;-74
2022/03/18 00:57:37;;;;;;;4.40;2.80;;;20.10;58.00;;;;;;4951516;28;88660;-74
2022/03/18 01:00:07;;;;;;;4.95;2.60;;;20.10;58.00;;;;;;4949808;28;89797;-74
2022/03/18 01:02:32;;;;;;;;;;;20.00;58.10;;;;;;4951438;28;87796;-73
2022/03/18 01:04:58;;;;;;;3.47;2.80;;;20.00;58.10;;;;;;4952745;28;88032;-73
2022/03/18 01:07:24;;;;;;;4.40;2.95;;;20.10;58.00;;;;;;4950860;28;87489;-73
2022/03/18 01:09:49;;;;;;;3.63;2.40;;;20.00;58.00;;;;;;4950357;28;86443;-73
2022/03/18 01:12:16;;;;;;;3.25;2.85;;;20.00;58.00;;;;;;4941092;28;88235;-73
2022/03/18 01:14:41;;;;;;;4.57;2.60;;;20.00;57.90;;;;;;4965319;28;89002;-74
2022/03/18 01:17:07;;;;;;;4.63;2.95;;;20.00;58.00;;;;;;4950513;28;89456;-73
2022/03/18 01:19:32;;;;;;;3.95;2.72;;;20.00;58.00;;;;;;4951447;28;88873;-73
2022/03/18 01:21:58;;;;;;;3.25;2.45;;;20.00;58.00;;;;;;4950725;28;87383;-74
2022/03/18 01:24:23;;;;;;;3.97;2.58;;;20.00;58.10;;;;;;4950507;28;87254;-73
2022/03/18 01:26:49;;;;;;;4.32;2.53;;;20.00;58.00;;;;;;4949963;28;88193;-73
2022/03/18 01:29:15;;;;;;;3.83;2.60;;;20.00;58.10;;;;;;4949225;28;88734;-73
2022/03/18 01:31:42;;;;;;;3.95;2.78;;;19.90;57.90;;;;;;4951054;28;87464;-74
2022/03/18 01:34:08;;;;;;;2.95;2.50;;;20.00;58.10;;;;;;4951687;28;87147;-73
2022/03/18 01:36:33;;;;;;;3.50;2.60;;;19.90;57.90;;;;;;4950734;28;88288;-73
2022/03/18 01:38:59;;;;;;;3.70;2.80;;;19.90;58.00;;;;;;4950736;28;88100;-73
2022/03/18 01:41:25;;;;;;;3.55;2.70;;;19.90;57.90;;;;;;4950285;28;88523;-74
2022/03/18 01:43:51;;;;;;;3.38;2.80;;;19.90;57.90;;;;;;4949654;28;87262;-73
2022/03/18 01:46:17;;;;;;;3.05;2.63;;;19.90;57.90;;;;;;4949992;28;88139;-73
2022/03/18 01:48:43;;;;;;;4.35;2.90;;;19.90;58.00;;;;;;4949925;28;87826;-73
2022/03/18 01:51:09;;;;;;;4.15;2.67;;;19.90;58.00;;;;;;4950726;28;88027;-72
2022/03/18 01:53:36;;;;;;;4.60;2.97;;;19.90;57.90;;;;;;4950646;28;87841;-72
2022/03/18 01:56:03;;;;;;;3.58;2.75;;;19.90;57.90;;;;;;4950139;28;88427;-72
2022/03/18 01:58:29;;;;;;;3.25;2.80;;;19.90;57.90;;;;;;4948756;28;88630;-72
2022/03/18 02:00:54;;;;;;;4.05;2.63;;;19.80;57.80;;;;;;4964887;28;87735;-72
2022/03/18 02:03:20;;;;;;;4.47;2.72;;;19.90;57.90;;;;;;4950418;28;89534;-72
2022/03/18 02:05:46;;;;;;;3.65;2.95;;;19.80;57.70;;;;;;4950357;28;89072;-73
2022/03/18 02:08:15;;;;;;;3.78;2.65;;;19.90;57.60;;;;;;4950001;28;88417;-72
2022/03/18 02:10:41;;;;;;;4.30;2.60;;;19.80;57.40;;;;;;4950609;28;87460;-72
2022/03/18 02:13:07;;;;;;;3.20;2.80;;;19.90;57.40;;;;;;4948945;28;87350;-72
2022/03/18 02:15:33;;;;;;;3.90;2.85;;;19.80;57.30;;;;;;4948694;28;88378;-73
2022/03/18 02:17:58;;;;;;;4.85;2.92;;;19.80;57.60;;;;;;4949498;28;88259;-73
2022/03/18 02:20:24;;;;;;;4.20;3.00;;;19.80;57.50;;;;;;4948839;28;88181;-72
2022/03/18 02:22:50;;;;;;;2.92;2.50;;;19.80;57.40;;;;;;4950092;28;87693;-72
2022/03/18 02:25:16;;;;;;;3.55;2.95;;;19.80;57.40;;;;;;4949189;28;89631;-72
2022/03/18 02:27:54;;;;;;;3.60;2.80;;;19.80;57.40;;;;;;4946665;28;87901;-73
2022/03/18 02:30:22;;;;;;;4.10;2.92;;;19.80;57.50;;;;;;4948207;28;90540;-72
2022/03/18 02:32:47;;;;;;;3.08;2.67;;;19.80;57.40;;;;;;4963229;28;90788;-72
2022/03/18 02:35:13;;;;;;;3.45;2.83;;;19.80;57.40;;;;;;4948975;28;88027;-72
2022/03/18 02:37:39;;;;;;;3.63;2.90;;;19.80;57.30;;;;;;4934650;28;90256;-72
2022/03/18 02:40:05;;;;;;;5.53;3.45;;;19.80;57.40;;;;;;4948229;28;88126;-72
2022/03/18 02:42:31;;;;;;;3.53;2.92;;;19.70;57.20;;;;;;4949547;28;87728;-72
2022/03/18 02:44:57;;;;;;;3.50;2.65;;;19.80;57.10;;;;;;4949193;28;89730;-72
2022/03/18 02:47:24;;;;;;;3.90;2.90;;;19.70;56.90;;;;;;4948646;28;92268;-72
2022/03/18 02:49:50;;;;;;;3.78;2.70;;;19.80;56.90;;;;;;4949865;28;87431;-73
2022/03/18 02:52:15;;;;;;;4.43;2.95;;;19.70;56.90;;;;;;4950410;28;87310;-74
2022/03/18 02:54:41;;;;;;;3.53;3.22;;;19.70;56.90;;;;;;4949471;28;89106;-74
2022/03/18 02:57:07;;;;;;;3.55;2.63;;;19.70;56.90;;;;;;4949247;28;89295;-73
2022/03/18 02:59:33;;;;;;;3.92;3.15;;;19.70;56.90;;;;;;4949301;28;87057;-73
2022/03/18 03:01:59;;;;;;;3.22;2.80;;;19.70;56.80;;;;;;4949736;28;87952;-73
2022/03/18 03:04:25;;;;;;;3.45;2.72;;;19.70;56.80;;;;;;4949820;28;87506;-73
2022/03/18 03:09:35;;;;;;;3.85;2.97;;;19.70;56.90;;;;;;4950021;28;87574;-72
2022/03/18 03:12:01;;;;;;;3.63;2.95;;;19.70;56.70;;;;;;4949686;28;87618;-71
2022/03/18 03:14:26;;;;;;;3.30;2.65;;;19.60;56.70;;;;;;4962712;28;90480;-73
2022/03/18 03:16:52;;;;;;;5.03;3.00;;;19.70;56.90;;;;;;4948249;28;87987;-73
2022/03/18 03:19:18;;;;;;;3.15;2.70;;;19.70;56.80;;;;;;4948253;28;88382;-72
2022/03/18 03:21:44;;;;;;;3.20;2.83;;;19.60;56.70;;;;;;4948390;28;88062;-72
2022/03/18 03:24:09;;;;;;;4.00;2.58;;;19.60;56.70;;;;;;4949292;28;89319;-73
2022/03/18 03:26:35;;;;;;;3.42;2.58;;;19.60;56.60;;;;;;4946159;28;90605;-72
2022/03/18 03:29:01;;;;;;;3.85;2.83;;;19.70;56.90;;;;;;4964506;28;87797;-72
2022/03/18 03:31:26;;;;;;;3.72;2.85;;;19.60;56.70;;;;;;4949348;28;87153;-74
2022/03/18 03:33:52;;;;;;;4.15;2.88;;;19.60;56.40;;;;;;4949474;28;88258;-73
2022/03/18 03:36:18;;;;;;;3.60;2.83;;;19.60;56.40;;;;;;4948173;28;87330;-73
2022/03/18 03:38:44;;;;;;;3.00;2.70;;;19.60;56.50;;;;;;4947085;28;87347;-72
2022/03/18 03:41:10;;;;;;;4.38;3.00;;;19.50;56.40;;;;;;4946838;28;87099;-72
2022/03/18 03:43:36;;;;;;;3.42;3.00;;;19.50;56.60;;;;;;4947966;28;89513;-72
2022/03/18 03:46:01;;;;;;;3.58;3.00;;;19.50;56.40;;;;;;4948707;28;88908;-73
2022/03/18 03:48:27;;;;;;;3.30;2.90;;;19.60;56.50;;;;;;4948784;28;87683;-74
2022/03/18 03:50:53;;;;;;;4.00;3.20;;;19.50;56.30;;;;;;4950912;28;87426;-73
2022/03/18 03:53:19;;;;;;;4.13;3.10;;;19.50;56.50;;;;;;4952789;28;87343;-73
2022/03/18 03:55:45;;;;;;;3.50;2.80;;;19.50;56.30;;;;;;4952541;28;87753;-73
2022/03/18 03:58:11;;;;;;;3.72;2.63;;;19.50;56.40;;;;;;4952354;28;87886;-73
2022/03/18 04:00:37;;;;;;;3.55;2.60;;;19.50;56.40;;;;;;4951811;28;87309;-73
2022/03/18 04:03:06;;;;;;;4.57;3.40;;;19.50;56.50;;;;;;4952489;28;87446;-74
2022/03/18 04:05:33;;;;;;;3.93;3.40;;;19.50;56.50;;;;;;4957142;28;88016;-73
2022/03/18 04:07:59;;;;;;;3.80;3.00;;;19.50;56.40;;;;;;4952475;28;88553;-74
2022/03/18 04:10:25;;;;;;;5.85;3.22;;;19.50;56.40;;;;;;4949071;28;87641;-75
2022/03/18 04:12:51;;;;;;;4.90;2.92;;;19.50;56.30;;;;;;4949105;28;88031;-73
2022/03/18 04:15:17;;;;;;;4.22;3.50;;;19.50;56.50;;;;;;4948961;28;87999;-73
2022/03/18 04:17:45;;;;;;;6.05;3.58;;;19.50;56.50;;;;;;4950617;28;87846;-75
2022/03/18 04:20:13;;;;;;;3.90;3.10;;;19.50;56.50;;;;;;4949224;28;89533;-73
2022/03/18 04:22:39;;;;;;;4.03;3.10;;;19.50;56.50;;;;;;4948874;28;87422;-74
2022/03/18 04:25:06;;;;;;;4.13;3.10;;;19.50;56.60;;;;;;4948555;28;89835;-74
2022/03/18 04:27:33;;;;;;;5.18;3.30;;;19.50;56.60;;;;;;4949086;28;87209;-74
2022/03/18 04:29:58;;;;;;;3.97;2.78;;;19.50;56.60;;;;;;4949958;28;87399;-73
2022/03/18 04:32:24;;;;;;;4.00;3.10;;;19.50;56.60;;;;;;4948406;28;88826;-76
2022/03/18 04:34:50;;;;;;;4.18;2.90;;;19.40;56.50;;;;;;4946953;28;89539;-75
2022/03/18 04:37:15;;;;;;;5.18;3.33;;;19.50;56.70;;;;;;4948932;28;87798;-73
2022/03/18 04:39:41;;;;;;;4.10;2.65;;;19.40;56.40;;;;;;4948974;28;87555;-74
2022/03/18 04:42:07;;;;;;;7.93;3.90;;;19.50;56.40;;;;;;4949351;28;87566;-75
2022/03/18 04:44:33;;;;;;;8.32;3.53;;;19.40;56.10;;;;;;4948868;28;90023;-75
2022/03/18 04:46:58;;;;;;;9.23;4.60;;;19.40;56.60;;;;;;4951486;28;88221;-74
2022/03/18 04:49:24;;;;;;;5.10;3.65;;;19.40;56.80;;;;;;4952289;28;86873;-75
2022/03/18 04:51:49;;;;;;;5.45;3.70;;;19.40;56.90;;;;;;4951608;28;88258;-74
2022/03/18 04:54:15;;;;;;;6.63;4.32;;;19.40;56.90;;;;;;4949507;28;87721;-74
2022/03/18 04:59:25;;;;;;;7.30;4.88;;;19.40;57.10;;;;;;4949422;28;88184;-74
2022/03/18 05:01:50;;;;;;;5.85;4.30;;;19.40;57.20;;;;;;4949772;28;89404;-73
2022/03/18 05:04:16;;;;;;;5.95;3.83;;;19.40;57.10;;;;;;4950790;28;88305;-73
2022/03/18 05:06:42;;;;;;;6.05;3.53;;;19.40;57.00;;;;;;4951943;28;87773;-74
2022/03/18 05:09:07;;;;;;;8.75;4.32;;;19.40;56.10;;;;;;4950896;28;87664;-75
2022/03/18 05:11:33;;;;;;;4.75;3.92;;;19.40;56.60;;;;;;4950049;28;88384;-75
2022/03/18 05:13:59;;;;;;;4.38;3.92;;;19.40;56.60;;;;;;4950907;28;87687;-76
2022/03/18 05:16:25;;;;;;;5.78;4.10;;;19.40;56.60;;;;;;4949011;28;88065;-76
2022/03/18 05:18:51;;;;;;;6.13;4.15;;;19.40;56.60;;;;;;4950176;28;87505;-75
2022/03/18 05:21:17;;;;;;;6.07;4.43;;;19.40;56.60;;;;;;4950784;28;88938;-76
2022/03/18 05:23:43;;;;;;;6.38;3.72;;;19.40;56.40;;;;;;4949456;28;88142;-75
2022/03/18 05:26:09;;;;;;;4.60;4.05;;;19.30;56.10;;;;;;4951666;28;86948;-75
2022/03/18 05:28:36;;;;;;;5.20;3.95;;;19.30;56.10;;;;;;4950646;28;87555;-75
2022/03/18 05:31:01;;;;;;;6.05;3.80;;;19.30;56.10;;;;;;4951074;28;88072;-75
2022/03/18 05:33:27;;;;;;;4.32;3.60;;;19.30;55.90;;;;;;4950167;28;87676;-75
2022/03/18 05:35:53;;;;;;;7.15;4.55;;;19.30;55.80;;;;;;4949181;28;88004;-75
2022/03/18 05:38:18;;;;;;;6.22;3.90;;;19.30;55.80;;;;;;4950795;28;86561;-75
2022/03/18 05:43:23;;;;;;;4.50;3.95;;;19.30;55.60;;;;;;4951427;28;88276;-78
2022/03/18 05:45:49;;;;;;;4.57;3.80;;;19.30;55.50;;;;;;4970457;28;88915;-77
2022/03/18 05:48:14;;;;;;;6.10;3.50;;;19.30;55.60;;;;;;4969454;28;87990;-76
2022/03/18 05:50:40;;;;;;;6.80;3.92;;;19.30;55.30;;;;;;4968180;28;88400;-79
2022/03/18 05:53:06;;;;;;;4.95;3.78;;;19.30;55.30;;;;;;4971742;28;87899;-85
2022/03/18 05:58:18;;;;;;;4.78;3.50;;;19.20;55.00;;;;;;4969932;28;87494;-79
2022/03/18 06:00:44;;;;;;;4.03;3.30;;;19.20;54.90;;;;;;4970272;28;87011;-75
2022/03/18 06:03:12;;;;;;;4.45;3.50;;;19.20;54.80;;;;;;4971057;28;87867;-77
2022/03/18 06:05:39;;;;;;;4.70;3.35;;;19.20;54.80;;;;;;4970214;28;87431;-81
2022/03/18 06:13:33;;;;;;;4.93;3.60;;;19.20;54.70;;;;;;4970239;28;87927;-85
2022/03/18 06:15:58;;;;;;;6.38;3.70;;;19.20;54.60;;;;;;4969819;28;87793;-72
2022/03/18 06:18:24;;;;;;;6.35;4.03;;;19.20;54.60;;;;;;4969795;28;88313;-74
2022/03/18 06:20:51;;;;;;;5.25;3.53;;;19.20;54.50;;;;;;4969854;28;87764;-71
2022/03/18 06:23:16;;;;;;;5.60;3.70;;;19.20;54.30;;;;;;4938782;28;90035;-73
2022/03/18 06:25:43;;;;;;;4.07;3.67;;;19.20;54.00;;;;;;4970832;28;87209;-73
2022/03/18 06:28:08;;;;;;;4.13;3.53;;;19.20;53.90;;;;;;4943797;28;90212;-72
2022/03/18 06:30:34;;;;;;;6.75;3.38;;;19.20;53.80;;;;;;4938898;28;89439;-72
2022/03/18 06:33:00;;;;;;;7.28;3.88;;;19.20;53.80;;;;;;4969322;28;88212;-74
2022/03/18 06:35:26;;;;;;;8.52;3.90;;;19.20;53.50;;;;;;4969220;28;88843;-73
2022/03/18 06:37:51;;;;;;;10.38;4.15;;;19.20;53.40;;;;;;4969799;28;87937;-76
2022/03/18 06:40:17;;;;;;;7.38;4.25;;;19.30;53.30;;;;;;4970586;28;87609;-72
2022/03/18 06:42:43;;;;;;;6.95;4.20;;;19.30;53.10;;;;;;4968974;28;86971;-77
2022/03/18 06:45:09;;;;;;;9.52;4.78;;;19.30;53.30;;;;;;4969422;28;87795;-71
2022/03/18 06:47:34;;;;;;;9.63;5.10;;;19.20;53.20;;;;;;4943851;28;89730;-76
2022/03/18 06:50:00;;;;;;;9.07;4.10;;;19.30;53.10;;;;;;4968149;28;88193;-74
2022/03/18 06:52:26;;;;;;;10.48;4.55;;;19.40;53.00;;;;;;4969873;28;88881;-73
2022/03/18 06:54:51;;;;;;;4.70;3.63;;;19.30;52.90;;;;;;4970627;28;87512;-74
2022/03/18 06:57:17;;;;;;;6.32;4.30;;;19.30;52.90;;;;;;4969487;28;87382;-73
2022/03/18 06:59:42;;;;;;;6.88;3.92;;;19.40;53.50;;;;;;4967829;28;88714;-74
2022/03/18 07:02:08;;;;;;;5.95;4.10;;;19.40;53.70;;;;;;4968457;28;89317;-78
2022/03/18 07:04:34;;;;;;;7.15;4.30;;;19.40;53.60;;;;;;4968703;28;87228;-74
2022/03/18 07:07:01;;;;;;;7.03;4.38;;;19.40;53.60;;;;;;4938054;28;89171;-75
2022/03/18 07:09:27;;;;;;;10.63;4.53;;;19.50;53.80;;;;;;4967903;28;89426;-76
2022/03/18 07:11:53;;;;;;;14.23;5.07;;;19.70;53.50;;;;;;4968439;28;87873;-80
2022/03/18 07:14:19;;;;;;;14.55;4.80;;;19.90;53.20;;;;;;4968847;28;86918;-80
2022/03/18 07:19:29;;;;;;;17.77;6.30;;;20.00;52.90;;;;;;4970938;28;87929;-74
2022/03/18 07:21:54;;;;;;;23.42;6.78;;;20.00;52.90;;;;;;4970232;28;87772;-74
2022/03/18 07:24:20;;;;;;;20.08;5.82;;;20.10;53.00;;;;;;4967078;28;88225;-74
2022/03/18 07:26:46;;;;;;;20.25;6.35;;;20.10;53.00;;;;;;4971702;28;87441;-74
2022/03/18 07:29:11;;;;;;;19.88;6.30;;;20.20;53.40;;;;;;4972551;28;88028;-73
2022/03/18 07:31:37;;;;;;;37.53;7.05;;;20.20;53.30;;;;;;4940714;28;92301;-73
2022/03/18 07:34:02;;;;;;;19.20;6.68;;;20.20;53.20;;;;;;4972039;28;87170;-76
2022/03/18 07:36:28;;;;;;;21.33;6.40;;;20.20;53.60;;;;;;4971408;28;87690;-72
2022/03/18 07:38:54;;;;;;;23.45;7.07;;;20.30;53.60;;;;;;4968842;28;88295;-73
2022/03/18 07:41:20;;;;;;;24.55;7.25;;;20.30;54.00;;;;;;4965024;28;87806;-74
2022/03/18 07:43:46;;;;;;;19.73;6.05;;;20.30;53.70;;;;;;4952140;28;87035;-76
2022/03/18 07:46:12;;;;;;;26.73;7.07;;;20.30;53.70;;;;;;4969797;28;87586;-76
2022/03/18 07:48:40;;;;;;;25.40;6.88;;;20.30;53.80;;;;;;4969402;28;89708;-75
2022/03/18 07:51:06;;;;;;;27.65;7.93;;;20.40;54.00;;;;;;4951861;28;89084;-74
2022/03/18 07:53:32;;;;;;;21.80;7.43;;;20.30;54.20;;;;;;4968254;28;87845;-80
2022/03/18 07:55:58;;;;;;;21.33;7.32;;;20.40;54.20;;;;;;4969653;28;87186;-74
2022/03/18 07:58:23;;;;;;;23.00;8.32;;;20.40;54.30;;;;;;4971399;28;87235;-76
2022/03/18 08:00:49;;;;;;;24.02;7.22;;;20.40;54.40;;;;;;4971031;28;87840;-73
2022/03/18 08:03:14;;;;;;;23.23;8.07;;;20.40;54.50;;;;;;4967234;28;87858;-74
2022/03/18 08:05:40;;;;;;;23.40;7.15;;;20.40;54.50;;;;;;4919528;28;88362;-75
2022/03/18 08:08:07;;;;;;;23.92;8.15;;;20.50;55.00;;;;;;4972542;28;88677;-75
2022/03/18 08:10:32;;;;;;;19.50;7.43;;;20.50;54.50;;;;;;4967916;28;88482;-79
2022/03/18 08:13:01;;;;;;;22.38;7.10;;;20.50;54.70;;;;;;4939284;28;88880;-74
2022/03/18 08:15:28;;;;;;;21.55;7.18;;;20.50;54.90;;;;;;4959637;28;87901;-75
2022/03/18 08:17:54;;;;;;;25.38;7.38;;;20.50;55.00;;;;;;4969311;28;88129;-78
2022/03/18 08:20:21;;;;;;;20.17;8.02;;;20.50;54.90;;;;;;4948813;28;90599;-73
2022/03/18 08:22:48;;;;;;;22.75;7.85;;;20.60;54.90;;;;;;4966744;28;87224;-78
2022/03/18 08:25:13;;;;;;;29.35;7.60;;;20.60;55.00;;;;;;4944218;28;90656;-74
2022/03/18 08:27:39;;;;;;;15.45;6.75;;;20.60;55.10;;;;;;4969509;28;87962;-74
2022/03/18 08:30:07;;;;;;;21.20;7.15;;;20.50;55.20;;;;;;4968748;28;90866;-73
2022/03/18 08:32:33;;;;;;;21.05;7.00;;;20.50;55.50;;;;;;4968564;28;87042;-81
2022/03/18 08:34:59;;;;;;;22.15;7.25;;;20.50;55.50;;;;;;4969789;28;87872;-77
2022/03/18 08:40:12;;;;;;;21.83;6.57;;;20.40;55.60;;;;;;4971290;28;87977;-74
2022/03/18 08:42:38;;;;;;;19.15;6.47;;;20.40;55.80;;;;;;4946329;28;87866;-74
2022/03/18 08:45:08;;;;;;;22.17;7.28;;;20.40;55.80;;;;;;4970280;28;86836;-76
2022/03/18 08:47:34;;;;;;;21.52;6.68;;;20.40;55.30;;;;;;4964455;28;90588;-75
2022/03/18 08:49:59;;;;;;;19.20;7.15;;;20.40;55.60;;;;;;4952833;28;88493;-76
2022/03/18 08:52:25;;;;;;;14.18;6.15;;;20.40;55.50;;;;;;4970802;28;87994;-82
2022/03/18 08:54:51;;;;;;;18.13;6.38;;;20.40;55.40;;;;;;4969614;28;89872;-77
2022/03/18 08:57:18;;;;;;;27.48;7.68;;;20.40;55.70;;;;;;4958638;28;90222;-71
2022/03/18 08:59:44;;;;;;;19.35;6.32;;;20.40;55.80;;;;;;4965969;28;87782;-73
2022/03/18 09:02:10;;;;;;;14.50;6.47;;;20.40;55.80;;;;;;4968903;28;88175;-75
2022/03/18 09:04:36;;;;;;;17.42;6.75;;;20.40;55.80;;;;;;4952010;28;90638;-76
2022/03/18 09:07:02;;;;;;;22.40;7.47;;;20.40;56.10;;;;;;4969792;28;89580;-75
2022/03/18 09:09:27;;;;;;;15.25;6.00;;;20.40;56.00;;;;;;4968712;28;89375;-72
2022/03/18 09:11:54;;;;;;;17.10;6.72;;;20.40;56.10;;;;;;4971027;28;87574;-72
2022/03/18 09:14:20;;;;;;;15.70;6.50;;;20.40;56.20;;;;;;4971593;28;87584;-73
2022/03/18 09:16:47;;;;;;;16.13;5.82;;;20.40;56.20;;;;;;4970988;28;87692;-72
2022/03/18 09:19:13;;;;;;;19.40;7.30;;;20.40;56.30;;;;;;4971347;28;88564;-76
2022/03/18 09:21:39;;;;;;;18.13;5.90;;;20.40;56.90;;;;;;4970242;28;87123;-73
2022/03/18 09:24:06;;;;;;;15.00;5.93;;;20.40;56.10;;;;;;4952873;28;88166;-73
2022/03/18 09:26:31;;;;;;;19.40;7.15;;;20.40;55.60;;;;;;4952119;28;93018;-79
2022/03/18 09:28:57;;;;;;;20.48;5.95;;;20.40;56.30;;;;;;4969958;28;89112;-75
2022/03/18 09:31:23;;;;;;;17.15;5.93;;;20.40;56.20;;;;;;4969656;28;87620;-73
2022/03/18 09:33:49;;;;;;;16.05;6.60;;;20.40;56.60;;;;;;4940940;28;88966;-74
2022/03/18 09:36:18;;;;;;;16.55;6.10;;;20.50;56.80;;;;;;4967392;28;88012;-81
2022/03/18 09:38:47;;;;;;;16.38;6.05;;;20.50;56.50;;;;;;4966274;28;88418;-74
2022/03/18 09:41:14;;;;;;;20.33;5.90;;;20.50;56.20;;;;;;4966025;28;87742;-69
2022/03/18 09:43:41;;;;;;;11.23;5.28;;;20.50;56.10;;;;;;4967796;28;87503;-69
2022/03/18 09:46:12;;;;;;;18.30;5.47;;;20.60;56.10;;;;;;4969121;28;89685;-71
2022/03/18 09:48:39;;;;;;;15.35;6.00;;;20.60;55.60;;;;;;4968854;28;88058;-69
2022/03/18 09:51:06;;;;;;;13.10;5.25;;;20.60;56.10;;;;;;4967219;28;88463;-70
2022/03/18 09:53:34;;;;;;;12.65;5.75;;;20.60;56.10;;;;;;4968949;28;90845;-69
2022/03/18 09:56:00;;;;;;;19.38;6.15;;;20.60;56.70;;;;;;4970390;28;87711;-69
2022/03/18 09:58:26;;;;;;;16.35;5.50;;;20.60;56.10;;;;;;4968539;28;88081;-69
2022/03/18 10:00:57;;;;;;;15.45;5.72;;;20.60;56.20;;;;;;4970072;28;87583;-70
2022/03/18 10:03:39;;;;;;;11.32;5.63;;;20.60;56.30;;;;;;4969763;28;87666;-69
2022/03/18 10:06:06;;;;;;;12.10;5.05;;;20.60;56.30;;;;;;4952826;28;90769;-72
2022/03/18 10:08:44;;;;;;;13.65;5.18;;;20.60;56.20;;;;;;4946013;28;90926;-70
2022/03/18 10:11:13;;;;;;;15.00;5.20;;;20.60;55.90;;;;;;4969594;28;87087;-69
2022/03/18 10:13:51;;;;;;;13.50;4.88;;;20.60;56.10;;;;;;4969961;28;88137;-70
2022/03/18 10:16:39;;;;;;;12.85;5.78;;;20.60;56.10;;;;;;4951234;28;92158;-69
2022/03/18 10:19:19;;;;;;;14.48;4.35;;;20.60;56.30;;;;;;4970145;28;89053;-69
2022/03/18 10:21:53;;;;;;;13.70;5.72;;;20.60;56.30;;;;;;4970204;28;88038;-68
2022/03/18 10:24:23;;;;;;;13.15;4.75;;;20.60;56.30;;;;;;4968902;28;89336;-69
2022/03/18 10:26:52;;;;;;;12.95;5.03;;;20.60;56.20;;;;;;4952144;28;89735;-68
2022/03/18 10:29:18;;;;;;;10.43;4.65;;;20.70;56.40;;;;;;4967434;28;90535;-69
2022/03/18 10:31:59;;;;;;;11.65;4.60;;;20.60;56.60;;;;;;4949864;28;88060;-69
2022/03/18 10:37:25;;;;;;;12.82;4.53;;;20.70;56.30;;;;;;4970371;28;88042;-70
2022/03/18 10:40:00;;;;;;;11.25;4.35;;;20.70;56.10;;;;;;4969622;28;87054;-68
2022/03/18 10:42:26;;;;;;;13.25;4.78;;;20.70;55.90;;;;;;4939285;28;88055;-70
2022/03/18 10:44:54;;;;;;;10.10;4.45;;;20.60;56.00;;;;;;4951479;28;88495;-69
2022/03/18 10:47:35;;;;;;;9.18;4.70;;;20.70;56.10;;;;;;4951705;28;91233;-69
2022/03/18 10:50:11;;;;;;;10.55;4.47;;;20.70;56.10;;;;;;4969218;28;87914;-70
2022/03/18 10:52:37;;;;;;;15.50;4.85;;;20.60;56.00;;;;;;4969733;28;87542;-72
2022/03/18 10:55:16;;;;;;;9.65;4.43;;;20.70;56.00;;;;;;4969327;28;88190;-72
2022/03/18 10:57:53;;;;;;;10.50;4.25;;;20.70;55.90;;;;;;4969713;28;88274;-73
2022/03/18 11:00:20;;;;;;;8.25;3.35;;;20.70;56.10;;;;;;4969639;28;88872;-69
2022/03/18 11:02:48;;;;;;;11.80;4.22;;;20.70;55.90;;;;;;4967860;28;87224;-69
2022/03/18 11:05:14;;;;;;;9.57;3.90;;;20.60;55.80;;;;;;4967863;28;90048;-70
2022/03/18 11:07:43;;;;;;;9.10;4.45;;;20.60;55.50;;;;;;4968823;28;88633;-68
2022/03/18 11:13:01;;;;;;;12.10;4.30;;;20.70;55.80;;;;;;4970047;28;87426;-70
2022/03/18 11:15:29;;;;;;;13.93;4.65;;;20.70;56.00;;;;;;4969546;28;88299;-68
2022/03/18 11:17:56;;;;;;;11.52;4.25;;;20.70;56.10;;;;;;4969466;28;89250;-68
2022/03/18 11:20:27;;;;;;;8.40;4.18;;;20.70;56.20;;;;;;4969054;28;88977;-72
2022/03/18 11:22:54;;;;;;;11.13;4.32;;;20.70;56.30;;;;;;4969171;28;87302;-72
2022/03/18 11:25:21;;;;;;;8.90;4.05;;;20.70;56.40;;;;;;4967987;28;87682;-72
2022/03/18 11:27:47;;;;;;;9.52;3.55;;;20.70;56.30;;;;;;4967860;28;88473;-69
2022/03/18 11:30:25;;;;;;;8.90;3.95;;;20.60;56.40;;;;;;4968040;28;88199;-72
2022/03/18 11:33:06;;;;;;;11.68;4.45;;;20.70;56.50;;;;;;4949344;28;88412;-70
2022/03/18 11:35:50;;;;;;;9.85;4.18;;;20.70;56.60;;;;;;4952484;28;88861;-70
2022/03/18 11:38:23;;;;;;;10.13;3.65;;;20.70;56.70;;;;;;4969394;28;87854;-71
2022/03/18 11:41:05;;;;;;;11.18;3.97;;;20.70;56.50;;;;;;4950791;28;90392;-69
2022/03/18 11:43:35;;;;;;;10.57;4.20;;;20.70;56.50;;;;;;4968805;28;87746;-69
2022/03/18 11:46:12;;;;;;;7.00;2.72;;;20.70;56.40;;;;;;4969530;28;87455;-68
2022/03/18 11:48:48;;;;;;;7.35;2.80;;;20.70;56.10;;;;;;4968662;28;87676;-70
2022/03/18 11:51:36;;;;;;;9.50;2.85;;;20.70;55.20;;;;;;4968414;28;87314;-72
2022/03/18 11:54:15;;;;;;;7.60;3.28;;;20.70;53.90;;;;;;4968876;28;87001;-72
2022/03/18 11:56:50;;;;;;;6.63;2.90;;;20.70;52.40;;;;;;4968919;28;87943;-69
2022/03/18 11:59:25;;;;;;;9.27;3.40;;;20.60;51.50;;;;;;4966905;28;92387;-70
2022/03/18 12:01:54;;;;;;;5.55;2.42;;;20.60;51.70;;;;;;4969010;28;88148;-69
2022/03/18 12:04:42;;;;;;;5.80;3.20;;;20.60;51.60;;;;;;4967151;28;88337;-72
2022/03/18 12:07:19;;;;;;;8.48;2.33;;;20.60;52.30;;;;;;4967763;28;87514;-69
2022/03/18 12:09:49;;;;;;;9.63;3.10;;;20.70;51.90;;;;;;4968152;28;88152;-72
2022/03/18 12:12:15;;;;;;;;;;;20.60;52.20;;;;;;4972023;28;87901;-70
2022/03/18 12:14:41;;;;;;;11.90;3.25;;;20.60;52.40;;;;;;4972335;28;87901;-71
2022/03/18 12:17:07;;;;;;;9.40;3.10;;;20.70;52.60;;;;;;4971599;28;87068;-70
2022/03/18 12:19:35;;;;;;;9.65;4.05;;;20.70;52.70;;;;;;4945756;28;88327;-70
2022/03/18 12:22:01;;;;;;;11.50;3.10;;;20.70;52.80;;;;;;4965739;28;90696;-72
2022/03/18 12:24:32;;;;;;;13.30;2.90;;;20.70;53.20;;;;;;4938208;28;90183;-69
2022/03/18 12:27:00;;;;;;;8.35;3.20;;;20.60;53.50;;;;;;4952850;28;88062;-70
2022/03/18 12:29:28;;;;;;;9.05;3.10;;;20.50;53.70;;;;;;4970033;28;87371;-72
2022/03/18 12:32:09;;;;;;;7.53;2.70;;;20.50;53.90;;;;;;4969977;28;88201;-70
2022/03/18 12:34:44;;;;;;;7.03;2.58;;;20.50;54.40;;;;;;4969284;28;87322;-69
2022/03/18 12:37:17;;;;;;;10.20;3.05;;;20.50;54.50;;;;;;4969582;28;87710;-70
2022/03/18 12:39:44;;;;;;;8.93;3.15;;;20.50;54.80;;;;;;4952983;28;92507;-69
2022/03/18 12:42:11;;;;;;;9.75;3.20;;;20.50;55.10;;;;;;4970883;28;88797;-67
2022/03/18 12:44:37;;;;;;;6.53;3.35;;;20.50;55.20;;;;;;4970725;28;88177;-72
2022/03/18 12:47:05;;;;;;;9.63;3.08;;;20.50;55.20;;;;;;4971405;28;87692;-68
2022/03/18 12:49:38;;;;;;;8.50;3.00;;;20.50;55.60;;;;;;4944830;28;92533;-68
2022/03/18 12:52:09;;;;;;;9.63;3.13;;;20.50;55.70;;;;;;4970359;28;88572;-68
2022/03/18 12:54:34;;;;;;;15.35;3.53;;;20.50;55.80;;;;;;4968509;28;87429;-72
2022/03/18 12:57:02;;;;;;;6.55;2.75;;;20.50;55.30;;;;;;4969707;28;88013;-69
2022/03/18 12:59:28;;;;;;;9.95;3.03;;;20.50;55.50;;;;;;4941517;28;88747;-70
2022/03/18 13:01:55;;;;;;;7.32;2.72;;;20.50;55.80;;;;;;4969898;28;87783;-70
2022/03/18 13:04:22;;;;;;;9.00;2.75;;;20.50;56.00;;;;;;4971431;28;87474;-69
2022/03/18 13:07:00;;;;;;;11.27;3.42;;;20.60;55.80;;;;;;4971288;28;86615;-70
2022/03/18 13:09:26;;;;;;;7.35;2.88;;;20.60;55.80;;;;;;4938980;28;91128;-70
2022/03/18 13:11:51;;;;;;;10.65;2.75;;;20.70;55.40;;;;;;4971899;28;87190;-69
2022/03/18 13:14:38;;;;;;;11.68;3.03;;;20.70;55.40;;;;;;4970982;28;88988;-68
2022/03/18 13:17:03;;;;;;;6.28;2.65;;;20.70;55.10;;;;;;4939653;28;89987;-70